createdAt,value
2019-05-05T00:00:40.651Z,96.00
2019-05-05T00:05:46.993Z,96.00
2019-05-05T00:10:57.051Z,96.30
2019-05-05T00:16:18.458Z,96.10
2019-05-05T00:21:24.297Z,96.00
2019-05-05T00:26:27.782Z,96.30
2019-05-05T00:31:31.427Z,96.70
2019-05-05T00:36:35.477Z,96.20
2019-05-05T00:41:39.205Z,96.60
2019-05-05T00:46:56.843Z,96.10
2019-05-05T00:52:00.934Z,96.00
2019-05-05T00:57:04.890Z,95.40
2019-05-05T01:02:26.325Z,96.40
2019-05-05T01:07:31.245Z,96.30
2019-05-05T01:12:34.985Z,95.30
2019-05-05T01:17:38.681Z,95.90
2019-05-05T01:22:42.291Z,96.60
2019-05-05T01:27:45.941Z,95.60
2019-05-05T01:33:00.869Z,96.70
2019-05-05T01:38:09.023Z,96.40
2019-05-05T01:43:14.509Z,96.10
2019-05-05T01:48:17.909Z,96.00
2019-05-05T01:53:21.497Z,96.20
2019-05-05T01:58:25.629Z,96.50
2019-05-05T02:03:29.717Z,96.70
2019-05-05T02:08:34.905Z,97.10
2019-05-05T02:13:38.666Z,96.70
2019-05-05T02:18:42.391Z,96.50
2019-05-05T02:23:45.978Z,96.80
2019-05-05T02:28:54.420Z,96.70
2019-05-05T02:33:58.210Z,96.90
2019-05-05T02:39:01.949Z,96.80
2019-05-05T02:44:06.039Z,96.30
2019-05-05T02:49:10.970Z,96.20
2019-05-05T02:54:16.127Z,96.80
2019-05-05T02:59:25.071Z,96.70
2019-05-05T03:04:29.198Z,97.20
2019-05-05T03:09:34.675Z,97.30
2019-05-05T03:14:40.874Z,96.30
2019-05-05T03:19:45.225Z,96.80
2019-05-05T03:24:49.274Z,96.90
2019-05-05T03:29:53.610Z,96.40
2019-05-05T03:34:57.652Z,96.50
2019-05-05T03:40:04.256Z,97.30
2019-05-05T03:45:10.167Z,96.80
2019-05-05T03:50:14.492Z,96.50
2019-05-05T03:55:18.520Z,96.50
2019-05-05T04:00:45.183Z,96.30
2019-05-05T04:05:51.096Z,97.00
2019-05-05T04:11:00.943Z,96.70
2019-05-05T04:16:09.072Z,96.70
2019-05-05T04:21:14.516Z,97.20
2019-05-05T04:26:18.282Z,96.70
2019-05-05T04:31:24.047Z,96.80
2019-05-05T04:36:27.533Z,96.90
2019-05-05T04:41:31.130Z,96.80
2019-05-05T04:46:35.263Z,96.80
2019-05-05T04:51:47.796Z,96.90
2019-05-05T04:56:45.732Z,97.30
2019-05-05T05:01:50.962Z,97.00
2019-05-05T05:07:01.510Z,96.90
2019-05-05T05:12:05.257Z,97.20
2019-05-05T05:17:10.489Z,97.20
2019-05-05T05:22:14.073Z,96.60
2019-05-05T05:27:17.667Z,96.80
2019-05-05T05:32:21.266Z,96.80
2019-05-05T05:37:24.869Z,96.50
2019-05-05T05:42:28.484Z,96.30
2019-05-05T05:47:49.870Z,96.50
2019-05-05T05:52:54.048Z,96.10
2019-05-05T05:57:57.878Z,96.00
2019-05-05T06:03:01.474Z,96.10
2019-05-05T06:08:05.210Z,96.20
2019-05-05T06:13:08.801Z,96.10
2019-05-05T06:18:13.822Z,96.30
2019-05-05T06:23:17.587Z,96.40
2019-05-05T06:28:21.182Z,96.00
2019-05-05T06:33:25.123Z,96.30
2019-05-05T06:38:28.714Z,95.70
2019-05-05T06:43:36.753Z,95.90
2019-05-05T06:48:40.355Z,95.80
2019-05-05T06:53:44.018Z,95.40
2019-05-05T06:58:47.686Z,95.60
2019-05-05T07:03:51.359Z,95.20
2019-05-05T07:08:55.041Z,95.10
2019-05-05T07:13:58.631Z,94.90
2019-05-05T07:19:04.232Z,94.90
2019-05-05T07:24:08.109Z,95.10
2019-05-05T07:29:11.857Z,94.80
2019-05-05T07:34:16.987Z,94.30
2019-05-05T07:39:20.582Z,93.70
2019-05-05T07:44:29.366Z,94.20
2019-05-05T07:49:29.414Z,94.30
2019-05-05T07:54:34.201Z,94.60
2019-05-05T07:59:38.010Z,93.90
2019-05-05T08:04:43.642Z,93.40
2019-05-05T08:09:47.158Z,93.30
2019-05-05T08:14:53.708Z,93.10
2019-05-05T08:20:04.927Z,93.10
2019-05-05T08:25:36.282Z,92.60
2019-05-05T08:30:49.130Z,92.80
2019-05-05T08:35:54.126Z,91.10
2019-05-05T08:40:59.591Z,90.50
2019-05-05T08:46:04.936Z,90.70
2019-05-05T08:51:08.733Z,88.70
2019-05-05T08:56:14.448Z,88.80
2019-05-05T09:01:17.895Z,89.50
2019-05-05T09:06:24.009Z,90.10
2019-05-05T09:11:26.939Z,88.90
2019-05-05T09:16:30.525Z,90.20
2019-05-05T09:21:34.629Z,90.10
2019-05-05T09:26:45.593Z,87.60
2019-05-05T09:31:49.181Z,88.00
2019-05-05T09:36:56.291Z,85.20
2019-05-05T09:41:59.950Z,79.90
2019-05-05T09:47:04.770Z,77.80
2019-05-05T09:52:08.619Z,77.10
2019-05-05T09:57:14.316Z,77.50
2019-05-05T10:02:17.785Z,76.90
2019-05-05T10:07:21.386Z,80.00
2019-05-05T10:12:25.228Z,84.90
2019-05-05T10:17:28.859Z,87.30
2019-05-05T10:22:34.281Z,89.10
2019-05-05T10:27:44.934Z,88.60
2019-05-05T10:32:43.939Z,84.90
2019-05-05T10:37:47.634Z,78.90
2019-05-05T10:42:53.711Z,75.90
2019-05-05T10:47:57.423Z,76.90
2019-05-05T10:53:01.351Z,76.60
2019-05-05T10:58:05.346Z,82.30
2019-05-05T11:03:09.389Z,86.50
2019-05-05T11:08:13.650Z,82.60
2019-05-05T11:13:17.726Z,77.50
2019-05-05T11:18:23.654Z,72.90
2019-05-05T11:23:26.867Z,70.90
2019-05-05T11:28:30.600Z,71.70
2019-05-05T11:33:36.257Z,70.00
2019-05-05T11:38:41.597Z,61.00
2019-05-05T11:43:47.234Z,59.20
2019-05-05T11:48:51.222Z,58.40
2019-05-05T11:53:54.990Z,59.60
2019-05-05T11:58:58.596Z,58.20
2019-05-05T12:04:04.215Z,56.90
2019-05-05T12:09:10.786Z,54.60
2019-05-05T12:14:16.113Z,57.40
2019-05-05T12:19:21.282Z,61.90
2019-05-05T12:24:26.510Z,63.40
2019-05-05T12:29:30.130Z,60.90
2019-05-05T12:34:34.125Z,58.90
2019-05-05T12:39:37.994Z,57.40
2019-05-05T12:44:43.223Z,56.00
2019-05-05T12:49:46.808Z,58.80
2019-05-05T12:54:50.771Z,60.00
2019-05-05T12:59:54.427Z,69.10
2019-05-05T13:04:58.040Z,71.10
2019-05-05T13:10:01.875Z,73.90
2019-05-05T13:15:07.165Z,73.90
2019-05-05T13:20:15.929Z,76.30
2019-05-05T13:25:21.235Z,70.70
2019-05-05T13:30:25.136Z,66.10
2019-05-05T13:35:28.799Z,62.40
2019-05-05T13:40:34.462Z,57.90
2019-05-05T13:45:39.361Z,56.40
2019-05-05T13:50:44.684Z,58.10
2019-05-05T13:55:48.443Z,54.40
2019-05-05T14:00:54.505Z,54.40
2019-05-05T14:05:57.666Z,54.40
2019-05-05T14:11:03.534Z,56.60
2019-05-05T14:16:06.632Z,59.10
2019-05-05T14:21:10.217Z,62.30
2019-05-05T14:26:25.024Z,63.10
2019-05-05T14:31:23.984Z,64.90
2019-05-05T14:36:30.708Z,63.90
2019-05-05T14:41:35.247Z,63.00
2019-05-05T14:46:38.992Z,61.50
2019-05-05T14:51:44.709Z,60.30
2019-05-05T14:56:48.369Z,58.50
2019-05-05T15:01:52.042Z,52.50
2019-05-05T15:07:00.259Z,56.70
2019-05-05T15:12:08.378Z,58.00
2019-05-05T15:17:13.998Z,53.90
2019-05-05T15:22:17.344Z,55.30
2019-05-05T15:27:20.942Z,55.30
2019-05-05T15:32:24.609Z,55.50
2019-05-05T15:37:28.254Z,56.00
2019-05-05T15:42:33.508Z,54.20
2019-05-05T15:47:37.267Z,51.10
2019-05-05T15:52:43.910Z,51.20
2019-05-05T15:57:46.456Z,52.10
2019-05-05T16:02:50.435Z,53.90
2019-05-05T16:07:54.313Z,53.10
2019-05-05T16:12:58.028Z,50.10
2019-05-05T16:18:08.976Z,52.80
2019-05-05T16:23:17.169Z,52.90
2019-05-05T16:28:20.819Z,53.60
2019-05-05T16:33:24.525Z,53.50
2019-05-05T16:38:28.231Z,56.20
2019-05-05T16:43:33.654Z,56.00
2019-05-05T16:48:37.095Z,57.40
2019-05-05T16:58:58.358Z,59.10
2019-05-05T17:04:09.242Z,58.00
2019-05-05T17:09:07.584Z,57.30
2019-05-05T17:14:28.154Z,57.10
2019-05-05T17:19:36.753Z,58.20
2019-05-05T17:24:40.369Z,59.30
2019-05-05T17:29:44.103Z,59.40
2019-05-05T17:34:47.827Z,61.10
2019-05-05T17:39:54.600Z,61.50
2019-05-05T17:45:15.194Z,62.10
2019-05-05T17:50:30.862Z,61.40
2019-05-05T17:55:36.379Z,62.40
2019-05-05T18:00:43.487Z,64.00
2019-05-05T18:05:57.406Z,63.50
2019-05-05T18:11:03.899Z,64.10
2019-05-05T18:16:07.741Z,64.40
2019-05-05T18:21:11.563Z,65.70
2019-05-05T18:26:15.328Z,65.40
2019-05-05T18:31:19.294Z,65.60
2019-05-05T18:36:22.962Z,66.00
2019-05-05T18:41:40.570Z,67.20
2019-05-05T18:46:44.226Z,67.50
2019-05-05T18:51:47.816Z,68.10
2019-05-05T18:56:53.415Z,69.10
2019-05-05T19:02:00.845Z,68.50
2019-05-05T19:07:06.146Z,68.00
2019-05-05T19:12:10.272Z,69.50
2019-05-05T19:17:14.410Z,72.90
2019-05-05T19:22:18.005Z,74.80
2019-05-05T19:27:21.686Z,76.00
2019-05-05T19:32:25.618Z,78.50
2019-05-05T19:37:29.197Z,81.30
2019-05-05T19:42:32.792Z,83.30
2019-05-05T19:47:36.465Z,84.50
2019-05-05T19:52:40.194Z,85.90
2019-05-05T19:57:44.539Z,86.50
2019-05-05T20:03:01.345Z,86.70
2019-05-05T20:07:55.354Z,85.80
2019-05-05T20:12:59.079Z,86.80
2019-05-05T20:18:04.672Z,85.40
2019-05-05T20:23:08.378Z,86.50
2019-05-05T20:28:11.972Z,88.00
2019-05-05T20:33:19.902Z,89.40
2019-05-05T20:38:34.607Z,89.60
2019-05-05T20:43:38.337Z,90.10
2019-05-05T20:48:42.065Z,90.30
2019-05-05T20:53:49.109Z,89.70
2019-05-05T20:58:52.006Z,90.00
2019-05-05T21:03:55.704Z,90.40
2019-05-05T21:08:59.365Z,90.90
2019-05-05T21:14:04.047Z,91.10
2019-05-05T21:19:07.986Z,90.60
2019-05-05T21:24:11.581Z,90.90
2019-05-05T21:29:15.981Z,91.10
2019-05-05T21:34:19.578Z,91.00
2019-05-05T21:39:24.853Z,91.30
2019-05-05T21:44:28.705Z,91.00
2019-05-05T21:49:33.815Z,90.80
2019-05-05T21:54:39.190Z,91.20
2019-05-05T21:59:54.886Z,91.50
2019-05-05T22:04:48.202Z,91.70
2019-05-05T22:09:54.002Z,91.80
2019-05-05T22:14:57.434Z,91.70
2019-05-05T22:20:04.221Z,91.80
2019-05-05T22:25:08.062Z,91.90
2019-05-05T22:30:14.041Z,92.20
2019-05-05T22:35:17.507Z,92.30
2019-05-05T22:40:24.364Z,92.60
2019-05-05T22:45:28.445Z,93.00
2019-05-05T22:50:33.949Z,92.60
2019-05-05T22:55:37.358Z,92.70
2019-05-05T23:00:41.097Z,92.60
2019-05-05T23:05:46.637Z,93.10
2019-05-05T23:10:50.235Z,93.10
2019-05-05T23:16:03.985Z,92.80
2019-05-05T23:21:25.045Z,93.00
2019-05-05T23:26:35.660Z,93.30
2019-05-05T23:31:38.406Z,93.30
2019-05-05T23:36:43.988Z,93.30
2019-05-05T23:41:47.751Z,93.00
2019-05-05T23:46:53.567Z,92.60
2019-05-05T23:51:56.650Z,93.10
2019-05-05T23:57:00.661Z,93.60
